sensor_id;sensor_type;location;lat;lon;timestamp;P1;durP1;ratioP1;P2;durP2;ratioP2
71204;SDS011;58935;54.498;18.544;2023-04-25T00:02:21;2.40;;;2.20;;
71204;SDS011;58935;54.498;18.544;2023-04-25T00:04:47;2.00;;;1.90;;
71204;SDS011;58935;54.498;18.544;2023-04-25T00:07:14;2.10;;;2.00;;
71204;SDS011;58935;54.498;18.544;2023-04-25T00:09:41;2.10;;;1.90;;
71204;SDS011;58935;54.498;18.544;2023-04-25T00:12:10;4.60;;;3.40;;
71204;SDS011;58935;54.498;18.544;2023-04-25T00:14:35;2.90;;;2.30;;
71204;SDS011;58935;54.498;18.544;2023-04-25T00:17:01;4.00;;;2.40;;
71204;SDS011;58935;54.498;18.544;2023-04-25T00:19:28;2.80;;;2.50;;
71204;SDS011;58935;54.498;18.544;2023-04-25T00:21:55;2.50;;;2.30;;
71204;SDS011;58935;54.498;18.544;2023-04-25T00:24:21;4.70;;;2.80;;
71204;SDS011;58935;54.498;18.544;2023-04-25T00:26:46;3.40;;;3.10;;
71204;SDS011;58935;54.498;18.544;2023-04-25T00:29:11;3.50;;;3.10;;
71204;SDS011;58935;54.498;18.544;2023-04-25T00:31:37;2.20;;;2.00;;
71204;SDS011;58935;54.498;18.544;2023-04-25T00:34:03;1.60;;;1.50;;
71204;SDS011;58935;54.498;18.544;2023-04-25T00:36:31;1.70;;;1.60;;
71204;SDS011;58935;54.498;18.544;2023-04-25T00:38:57;1.60;;;1.50;;
71204;SDS011;58935;54.498;18.544;2023-04-25T00:41:26;1.20;;;1.20;;
71204;SDS011;58935;54.498;18.544;2023-04-25T00:43:54;1.60;;;1.50;;
71204;SDS011;58935;54.498;18.544;2023-04-25T00:46:20;1.50;;;1.30;;
71204;SDS011;58935;54.498;18.544;2023-04-25T00:48:48;1.60;;;1.50;;
71204;SDS011;58935;54.498;18.544;2023-04-25T00:51:16;1.70;;;1.60;;
71204;SDS011;58935;54.498;18.544;2023-04-25T00:53:44;1.50;;;1.40;;
71204;SDS011;58935;54.498;18.544;2023-04-25T00:56:10;1.90;;;1.70;;
71204;SDS011;58935;54.498;18.544;2023-04-25T00:58:37;1.80;;;1.70;;
71204;SDS011;58935;54.498;18.544;2023-04-25T01:01:03;2.30;;;1.70;;
71204;SDS011;58935;54.498;18.544;2023-04-25T01:03:32;1.60;;;1.50;;
71204;SDS011;58935;54.498;18.544;2023-04-25T01:06:01;1.80;;;1.70;;
71204;SDS011;58935;54.498;18.544;2023-04-25T01:08:30;1.60;;;1.50;;
71204;SDS011;58935;54.498;18.544;2023-04-25T01:10:56;2.60;;;1.80;;
71204;SDS011;58935;54.498;18.544;2023-04-25T01:13:22;1.80;;;1.70;;
71204;SDS011;58935;54.498;18.544;2023-04-25T01:15:47;2.10;;;1.80;;
71204;SDS011;58935;54.498;18.544;2023-04-25T01:18:13;3.40;;;1.90;;
71204;SDS011;58935;54.498;18.544;2023-04-25T01:20:40;2.10;;;2.00;;
71204;SDS011;58935;54.498;18.544;2023-04-25T01:23:08;1.80;;;1.70;;
71204;SDS011;58935;54.498;18.544;2023-04-25T01:25:35;2.40;;;1.90;;
71204;SDS011;58935;54.498;18.544;2023-04-25T01:28:03;2.20;;;2.00;;
71204;SDS011;58935;54.498;18.544;2023-04-25T01:30:29;1.90;;;1.70;;
71204;SDS011;58935;54.498;18.544;2023-04-25T01:32:55;2.90;;;1.90;;
71204;SDS011;58935;54.498;18.544;2023-04-25T01:35:24;2.50;;;2.30;;
71204;SDS011;58935;54.498;18.544;2023-04-25T01:37:51;3.30;;;2.40;;
71204;SDS011;58935;54.498;18.544;2023-04-25T01:40:17;2.60;;;2.40;;
71204;SDS011;58935;54.498;18.544;2023-04-25T01:42:44;2.80;;;2.60;;
71204;SDS011;58935;54.498;18.544;2023-04-25T01:45:11;2.60;;;2.40;;
71204;SDS011;58935;54.498;18.544;2023-04-25T01:47:38;3.20;;;2.50;;
71204;SDS011;58935;54.498;18.544;2023-04-25T01:50:07;3.60;;;2.70;;
71204;SDS011;58935;54.498;18.544;2023-04-25T01:52:33;2.60;;;2.40;;
71204;SDS011;58935;54.498;18.544;2023-04-25T01:55:01;3.90;;;3.10;;
71204;SDS011;58935;54.498;18.544;2023-04-25T01:57:27;3.20;;;3.00;;
71204;SDS011;58935;54.498;18.544;2023-04-25T01:59:58;3.10;;;2.90;;
71204;SDS011;58935;54.498;18.544;2023-04-25T02:02:25;7.50;;;3.30;;
71204;SDS011;58935;54.498;18.544;2023-04-25T02:04:51;4.50;;;3.60;;
71204;SDS011;58935;54.498;18.544;2023-04-25T02:07:17;3.30;;;3.00;;
71204;SDS011;58935;54.498;18.544;2023-04-25T02:09:45;4.40;;;3.60;;
71204;SDS011;58935;54.498;18.544;2023-04-25T02:12:13;4.20;;;3.00;;
71204;SDS011;58935;54.498;18.544;2023-04-25T02:14:39;5.30;;;3.60;;
71204;SDS011;58935;54.498;18.544;2023-04-25T02:17:05;3.40;;;3.10;;
71204;SDS011;58935;54.498;18.544;2023-04-25T02:19:35;4.20;;;3.80;;
71204;SDS011;58935;54.498;18.544;2023-04-25T02:22:00;3.50;;;3.20;;
71204;SDS011;58935;54.498;18.544;2023-04-25T02:24:26;3.60;;;3.30;;
71204;SDS011;58935;54.498;18.544;2023-04-25T02:26:53;3.20;;;3.00;;
71204;SDS011;58935;54.498;18.544;2023-04-25T02:29:20;3.90;;;3.50;;
71204;SDS011;58935;54.498;18.544;2023-04-25T02:31:46;3.50;;;3.20;;
71204;SDS011;58935;54.498;18.544;2023-04-25T02:34:11;3.40;;;3.20;;
71204;SDS011;58935;54.498;18.544;2023-04-25T02:36:36;3.40;;;3.10;;
71204;SDS011;58935;54.498;18.544;2023-04-25T02:39:02;3.80;;;3.40;;
71204;SDS011;58935;54.498;18.544;2023-04-25T02:41:30;4.10;;;3.60;;
71204;SDS011;58935;54.498;18.544;2023-04-25T02:43:56;3.80;;;3.50;;
71204;SDS011;58935;54.498;18.544;2023-04-25T02:46:21;5.40;;;3.90;;
71204;SDS011;58935;54.498;18.544;2023-04-25T02:48:46;4.40;;;3.80;;
71204;SDS011;58935;54.498;18.544;2023-04-25T02:51:12;4.40;;;4.00;;
71204;SDS011;58935;54.498;18.544;2023-04-25T02:53:38;4.10;;;3.70;;
71204;SDS011;58935;54.498;18.544;2023-04-25T02:56:03;4.90;;;3.80;;
71204;SDS011;58935;54.498;18.544;2023-04-25T02:58:29;3.50;;;3.30;;
71204;SDS011;58935;54.498;18.544;2023-04-25T03:00:55;5.10;;;3.50;;
71204;SDS011;58935;54.498;18.544;2023-04-25T03:03:20;5.60;;;4.00;;
71204;SDS011;58935;54.498;18.544;2023-04-25T03:05:48;5.10;;;4.50;;
71204;SDS011;58935;54.498;18.544;2023-04-25T03:08:16;3.80;;;3.50;;
71204;SDS011;58935;54.498;18.544;2023-04-25T03:10:42;6.50;;;3.90;;
71204;SDS011;58935;54.498;18.544;2023-04-25T03:13:08;8.10;;;4.70;;
71204;SDS011;58935;54.498;18.544;2023-04-25T03:15:35;4.30;;;4.00;;
71204;SDS011;58935;54.498;18.544;2023-04-25T03:18:01;4.50;;;4.10;;
71204;SDS011;58935;54.498;18.544;2023-04-25T03:20:27;6.70;;;4.60;;
71204;SDS011;58935;54.498;18.544;2023-04-25T03:22:53;5.00;;;4.50;;
71204;SDS011;58935;54.498;18.544;2023-04-25T03:25:19;5.00;;;4.50;;
71204;SDS011;58935;54.498;18.544;2023-04-25T03:27:44;4.60;;;4.30;;
71204;SDS011;58935;54.498;18.544;2023-04-25T03:30:10;5.10;;;4.70;;
71204;SDS011;58935;54.498;18.544;2023-04-25T03:32:36;4.90;;;4.50;;
71204;SDS011;58935;54.498;18.544;2023-04-25T03:35:05;5.40;;;4.80;;
71204;SDS011;58935;54.498;18.544;2023-04-25T03:37:30;5.30;;;4.90;;
71204;SDS011;58935;54.498;18.544;2023-04-25T03:39:56;4.70;;;4.30;;
71204;SDS011;58935;54.498;18.544;2023-04-25T03:42:24;6.20;;;5.40;;
71204;SDS011;58935;54.498;18.544;2023-04-25T03:44:51;7.20;;;5.00;;
71204;SDS011;58935;54.498;18.544;2023-04-25T03:47:19;5.40;;;5.00;;
71204;SDS011;58935;54.498;18.544;2023-04-25T03:49:44;4.90;;;4.50;;
71204;SDS011;58935;54.498;18.544;2023-04-25T03:52:10;4.80;;;4.40;;
71204;SDS011;58935;54.498;18.544;2023-04-25T03:54:35;4.50;;;4.10;;
71204;SDS011;58935;54.498;18.544;2023-04-25T03:57:01;5.20;;;4.70;;
71204;SDS011;58935;54.498;18.544;2023-04-25T03:59:26;4.60;;;4.10;;
71204;SDS011;58935;54.498;18.544;2023-04-25T04:01:52;5.20;;;4.00;;
71204;SDS011;58935;54.498;18.544;2023-04-25T04:04:19;4.50;;;4.10;;
71204;SDS011;58935;54.498;18.544;2023-04-25T04:06:45;5.80;;;5.20;;
71204;SDS011;58935;54.498;18.544;2023-04-25T04:09:10;7.10;;;4.10;;
71204;SDS011;58935;54.498;18.544;2023-04-25T04:11:38;6.10;;;4.40;;
71204;SDS011;58935;54.498;18.544;2023-04-25T04:14:06;4.90;;;4.50;;
71204;SDS011;58935;54.498;18.544;2023-04-25T04:16:32;3.90;;;3.60;;
71204;SDS011;58935;54.498;18.544;2023-04-25T04:18:58;5.10;;;4.60;;
71204;SDS011;58935;54.498;18.544;2023-04-25T04:21:23;8.50;;;4.20;;
71204;SDS011;58935;54.498;18.544;2023-04-25T04:23:49;4.80;;;4.40;;
71204;SDS011;58935;54.498;18.544;2023-04-25T04:26:17;4.10;;;3.60;;
71204;SDS011;58935;54.498;18.544;2023-04-25T04:28:43;3.90;;;3.60;;
71204;SDS011;58935;54.498;18.544;2023-04-25T04:31:10;4.50;;;4.00;;
71204;SDS011;58935;54.498;18.544;2023-04-25T04:33:36;4.40;;;4.00;;
71204;SDS011;58935;54.498;18.544;2023-04-25T04:36:02;5.00;;;4.50;;
71204;SDS011;58935;54.498;18.544;2023-04-25T04:38:29;4.70;;;4.40;;
71204;SDS011;58935;54.498;18.544;2023-04-25T04:40:57;4.80;;;4.40;;
71204;SDS011;58935;54.498;18.544;2023-04-25T04:43:23;4.30;;;4.00;;
71204;SDS011;58935;54.498;18.544;2023-04-25T04:45:48;5.40;;;4.90;;
71204;SDS011;58935;54.498;18.544;2023-04-25T04:48:15;4.50;;;4.20;;
71204;SDS011;58935;54.498;18.544;2023-04-25T04:50:43;4.40;;;4.00;;
71204;SDS011;58935;54.498;18.544;2023-04-25T04:53:10;5.80;;;5.30;;
71204;SDS011;58935;54.498;18.544;2023-04-25T04:55:37;5.10;;;4.10;;
71204;SDS011;58935;54.498;18.544;2023-04-25T04:58:04;5.20;;;4.80;;
71204;SDS011;58935;54.498;18.544;2023-04-25T05:00:30;5.80;;;5.20;;
71204;SDS011;58935;54.498;18.544;2023-04-25T05:02:58;4.70;;;4.30;;
71204;SDS011;58935;54.498;18.544;2023-04-25T05:05:24;4.90;;;4.20;;
71204;SDS011;58935;54.498;18.544;2023-04-25T05:07:52;5.40;;;4.70;;
71204;SDS011;58935;54.498;18.544;2023-04-25T05:10:19;4.50;;;4.10;;
71204;SDS011;58935;54.498;18.544;2023-04-25T05:12:45;5.00;;;4.60;;
71204;SDS011;58935;54.498;18.544;2023-04-25T05:15:13;5.00;;;4.60;;
71204;SDS011;58935;54.498;18.544;2023-04-25T05:17:41;4.40;;;4.10;;
71204;SDS011;58935;54.498;18.544;2023-04-25T05:20:09;5.00;;;4.60;;
71204;SDS011;58935;54.498;18.544;2023-04-25T05:22:35;4.70;;;4.40;;
71204;SDS011;58935;54.498;18.544;2023-04-25T05:25:01;4.70;;;4.30;;
71204;SDS011;58935;54.498;18.544;2023-04-25T05:27:26;5.00;;;4.60;;
71204;SDS011;58935;54.498;18.544;2023-04-25T05:29:52;4.90;;;4.50;;
71204;SDS011;58935;54.498;18.544;2023-04-25T05:32:18;4.30;;;3.90;;
71204;SDS011;58935;54.498;18.544;2023-04-25T05:34:45;6.30;;;4.90;;
71204;SDS011;58935;54.498;18.544;2023-04-25T05:37:11;4.60;;;3.90;;
71204;SDS011;58935;54.498;18.544;2023-04-25T05:39:36;3.80;;;3.50;;
71204;SDS011;58935;54.498;18.544;2023-04-25T05:42:04;4.20;;;3.80;;
71204;SDS011;58935;54.498;18.544;2023-04-25T05:44:30;5.40;;;4.00;;
71204;SDS011;58935;54.498;18.544;2023-04-25T05:46:56;4.30;;;3.90;;
71204;SDS011;58935;54.498;18.544;2023-04-25T05:49:22;6.60;;;4.60;;
71204;SDS011;58935;54.498;18.544;2023-04-25T05:51:50;4.60;;;3.90;;
71204;SDS011;58935;54.498;18.544;2023-04-25T05:54:15;4.40;;;3.90;;
71204;SDS011;58935;54.498;18.544;2023-04-25T05:56:41;4.20;;;3.90;;
71204;SDS011;58935;54.498;18.544;2023-04-25T05:59:09;4.30;;;3.90;;
71204;SDS011;58935;54.498;18.544;2023-04-25T06:01:34;3.20;;;3.00;;
71204;SDS011;58935;54.498;18.544;2023-04-25T06:04:00;4.00;;;3.40;;
71204;SDS011;58935;54.498;18.544;2023-04-25T06:06:25;4.60;;;3.90;;
71204;SDS011;58935;54.498;18.544;2023-04-25T06:08:52;6.20;;;3.30;;
71204;SDS011;58935;54.498;18.544;2023-04-25T06:11:17;5.30;;;3.50;;
71204;SDS011;58935;54.498;18.544;2023-04-25T06:13:45;3.80;;;3.40;;
71204;SDS011;58935;54.498;18.544;2023-04-25T06:16:11;3.60;;;3.20;;
71204;SDS011;58935;54.498;18.544;2023-04-25T06:18:39;4.30;;;3.30;;
71204;SDS011;58935;54.498;18.544;2023-04-25T06:21:04;3.50;;;3.10;;
71204;SDS011;58935;54.498;18.544;2023-04-25T06:23:30;5.20;;;3.20;;
71204;SDS011;58935;54.498;18.544;2023-04-25T06:25:55;3.70;;;3.30;;
71204;SDS011;58935;54.498;18.544;2023-04-25T06:28:21;5.40;;;3.00;;
71204;SDS011;58935;54.498;18.544;2023-04-25T06:30:47;4.00;;;3.10;;
71204;SDS011;58935;54.498;18.544;2023-04-25T06:33:13;3.20;;;3.00;;
71204;SDS011;58935;54.498;18.544;2023-04-25T06:35:38;3.20;;;2.90;;
71204;SDS011;58935;54.498;18.544;2023-04-25T06:38:04;4.90;;;3.00;;
71204;SDS011;58935;54.498;18.544;2023-04-25T06:40:30;3.30;;;3.00;;
71204;SDS011;58935;54.498;18.544;2023-04-25T06:42:55;4.00;;;3.20;;
71204;SDS011;58935;54.498;18.544;2023-04-25T06:45:21;3.30;;;3.00;;
71204;SDS011;58935;54.498;18.544;2023-04-25T06:47:51;3.50;;;2.70;;
71204;SDS011;58935;54.498;18.544;2023-04-25T06:50:21;3.40;;;3.00;;
71204;SDS011;58935;54.498;18.544;2023-04-25T06:52:47;4.60;;;3.20;;
71204;SDS011;58935;54.498;18.544;2023-04-25T06:55:12;3.60;;;3.00;;
71204;SDS011;58935;54.498;18.544;2023-04-25T06:57:40;5.50;;;3.00;;
71204;SDS011;58935;54.498;18.544;2023-04-25T07:00:06;3.30;;;3.00;;
71204;SDS011;58935;54.498;18.544;2023-04-25T07:02:34;5.20;;;3.10;;
71204;SDS011;58935;54.498;18.544;2023-04-25T07:05:00;5.90;;;2.80;;
71204;SDS011;58935;54.498;18.544;2023-04-25T07:07:29;5.60;;;2.80;;
71204;SDS011;58935;54.498;18.544;2023-04-25T07:09:56;3.30;;;2.90;;
71204;SDS011;58935;54.498;18.544;2023-04-25T07:12:21;6.10;;;3.00;;
71204;SDS011;58935;54.498;18.544;2023-04-25T07:14:47;3.80;;;2.70;;
71204;SDS011;58935;54.498;18.544;2023-04-25T07:17:12;3.50;;;2.80;;
71204;SDS011;58935;54.498;18.544;2023-04-25T07:19:38;2.90;;;2.60;;
71204;SDS011;58935;54.498;18.544;2023-04-25T07:22:05;2.60;;;2.20;;
71204;SDS011;58935;54.498;18.544;2023-04-25T07:24:31;2.90;;;2.50;;
71204;SDS011;58935;54.498;18.544;2023-04-25T07:26:58;3.40;;;2.60;;
71204;SDS011;58935;54.498;18.544;2023-04-25T07:29:23;3.80;;;2.50;;
71204;SDS011;58935;54.498;18.544;2023-04-25T07:31:49;2.70;;;2.20;;
71204;SDS011;58935;54.498;18.544;2023-04-25T07:34:15;3.30;;;3.00;;
71204;SDS011;58935;54.498;18.544;2023-04-25T07:36:41;5.50;;;2.90;;
71204;SDS011;58935;54.498;18.544;2023-04-25T07:39:07;3.00;;;2.50;;
71204;SDS011;58935;54.498;18.544;2023-04-25T07:41:36;4.00;;;2.70;;
71204;SDS011;58935;54.498;18.544;2023-04-25T07:44:01;3.70;;;2.40;;
71204;SDS011;58935;54.498;18.544;2023-04-25T07:46:27;3.30;;;2.50;;
71204;SDS011;58935;54.498;18.544;2023-04-25T07:48:52;2.80;;;2.30;;
71204;SDS011;58935;54.498;18.544;2023-04-25T07:51:18;3.70;;;2.60;;
71204;SDS011;58935;54.498;18.544;2023-04-25T07:53:45;3.30;;;2.20;;
71204;SDS011;58935;54.498;18.544;2023-04-25T07:56:11;2.60;;;2.20;;
71204;SDS011;58935;54.498;18.544;2023-04-25T07:58:37;2.90;;;1.90;;
71204;SDS011;58935;54.498;18.544;2023-04-25T08:01:03;2.20;;;2.00;;
71204;SDS011;58935;54.498;18.544;2023-04-25T08:03:29;3.40;;;2.00;;
71204;SDS011;58935;54.498;18.544;2023-04-25T08:05:54;4.10;;;2.00;;
71204;SDS011;58935;54.498;18.544;2023-04-25T08:08:21;3.10;;;2.10;;
71204;SDS011;58935;54.498;18.544;2023-04-25T08:10:46;5.10;;;2.20;;
71204;SDS011;58935;54.498;18.544;2023-04-25T08:13:13;2.10;;;1.90;;
71204;SDS011;58935;54.498;18.544;2023-04-25T08:15:39;2.10;;;1.90;;
71204;SDS011;58935;54.498;18.544;2023-04-25T08:18:04;2.60;;;1.90;;
71204;SDS011;58935;54.498;18.544;2023-04-25T08:20:30;1.70;;;1.60;;
71204;SDS011;58935;54.498;18.544;2023-04-25T08:23:00;1.80;;;1.70;;
71204;SDS011;58935;54.498;18.544;2023-04-25T08:25:29;3.20;;;1.70;;
71204;SDS011;58935;54.498;18.544;2023-04-25T08:27:58;1.90;;;1.70;;
71204;SDS011;58935;54.498;18.544;2023-04-25T08:30:31;26.40;;;2.80;;
71204;SDS011;58935;54.498;18.544;2023-04-25T08:33:02;10.20;;;2.80;;
71204;SDS011;58935;54.498;18.544;2023-04-25T08:35:28;1.90;;;1.60;;
71204;SDS011;58935;54.498;18.544;2023-04-25T08:37:56;4.50;;;1.70;;
71204;SDS011;58935;54.498;18.544;2023-04-25T08:40:26;3.30;;;1.60;;
71204;SDS011;58935;54.498;18.544;2023-04-25T08:45:27;1.90;;;1.80;;
71204;SDS011;58935;54.498;18.544;2023-04-25T08:47:57;4.30;;;1.70;;
71204;SDS011;58935;54.498;18.544;2023-04-25T08:50:24;1.80;;;1.50;;
71204;SDS011;58935;54.498;18.544;2023-04-25T08:52:53;1.70;;;1.60;;
71204;SDS011;58935;54.498;18.544;2023-04-25T08:55:23;3.70;;;1.80;;
71204;SDS011;58935;54.498;18.544;2023-04-25T08:57:49;3.00;;;1.80;;
71204;SDS011;58935;54.498;18.544;2023-04-25T09:00:18;2.60;;;1.60;;
71204;SDS011;58935;54.498;18.544;2023-04-25T09:02:45;3.50;;;1.70;;
71204;SDS011;58935;54.498;18.544;2023-04-25T09:05:13;11.10;;;2.30;;
71204;SDS011;58935;54.498;18.544;2023-04-25T09:07:39;2.40;;;1.50;;
71204;SDS011;58935;54.498;18.544;2023-04-25T09:10:05;2.80;;;1.40;;
71204;SDS011;58935;54.498;18.544;2023-04-25T09:12:31;1.40;;;1.30;;
71204;SDS011;58935;54.498;18.544;2023-04-25T09:15:02;1.40;;;1.40;;
71204;SDS011;58935;54.498;18.544;2023-04-25T09:17:30;2.20;;;1.60;;
71204;SDS011;58935;54.498;18.544;2023-04-25T09:20:06;1.60;;;1.60;;
71204;SDS011;58935;54.498;18.544;2023-04-25T09:22:34;1.70;;;1.60;;
71204;SDS011;58935;54.498;18.544;2023-04-25T09:25:03;1.40;;;1.30;;
71204;SDS011;58935;54.498;18.544;2023-04-25T09:27:32;4.30;;;1.70;;
71204;SDS011;58935;54.498;18.544;2023-04-25T09:29:58;1.50;;;1.40;;
71204;SDS011;58935;54.498;18.544;2023-04-25T09:32:26;2.10;;;1.90;;
71204;SDS011;58935;54.498;18.544;2023-04-25T09:34:56;2.00;;;1.60;;
71204;SDS011;58935;54.498;18.544;2023-04-25T09:37:25;5.80;;;2.70;;
71204;SDS011;58935;54.498;18.544;2023-04-25T09:39:55;4.90;;;2.00;;
71204;SDS011;58935;54.498;18.544;2023-04-25T09:42:25;4.80;;;2.10;;
71204;SDS011;58935;54.498;18.544;2023-04-25T09:44:54;2.20;;;1.80;;
71204;SDS011;58935;54.498;18.544;2023-04-25T09:47:22;7.10;;;2.00;;
71204;SDS011;58935;54.498;18.544;2023-04-25T09:49:50;2.20;;;2.00;;
71204;SDS011;58935;54.498;18.544;2023-04-25T09:52:19;2.10;;;1.70;;
71204;SDS011;58935;54.498;18.544;2023-04-25T09:54:47;2.00;;;1.40;;
71204;SDS011;58935;54.498;18.544;2023-04-25T09:57:16;1.60;;;1.50;;
71204;SDS011;58935;54.498;18.544;2023-04-25T09:59:46;1.80;;;1.50;;
71204;SDS011;58935;54.498;18.544;2023-04-25T10:02:15;1.90;;;1.80;;
71204;SDS011;58935;54.498;18.544;2023-04-25T10:04:49;3.30;;;1.90;;
71204;SDS011;58935;54.498;18.544;2023-04-25T10:07:18;2.70;;;1.70;;
71204;SDS011;58935;54.498;18.544;2023-04-25T10:09:48;1.50;;;1.40;;
71204;SDS011;58935;54.498;18.544;2023-04-25T10:12:16;1.40;;;1.30;;
71204;SDS011;58935;54.498;18.544;2023-04-25T10:14:42;2.30;;;1.50;;
71204;SDS011;58935;54.498;18.544;2023-04-25T10:17:10;4.00;;;1.40;;
71204;SDS011;58935;54.498;18.544;2023-04-25T10:19:39;1.90;;;1.40;;
71204;SDS011;58935;54.498;18.544;2023-04-25T10:22:18;2.10;;;1.50;;
71204;SDS011;58935;54.498;18.544;2023-04-25T10:24:51;3.70;;;1.60;;
71204;SDS011;58935;54.498;18.544;2023-04-25T10:27:20;2.50;;;1.90;;
71204;SDS011;58935;54.498;18.544;2023-04-25T10:30:00;3.20;;;2.00;;
71204;SDS011;58935;54.498;18.544;2023-04-25T10:32:31;1.50;;;1.40;;
71204;SDS011;58935;54.498;18.544;2023-04-25T10:35:10;3.60;;;1.80;;
71204;SDS011;58935;54.498;18.544;2023-04-25T10:40:22;3.10;;;1.40;;
71204;SDS011;58935;54.498;18.544;2023-04-25T10:42:48;4.30;;;1.80;;
71204;SDS011;58935;54.498;18.544;2023-04-25T10:45:14;2.20;;;1.90;;
71204;SDS011;58935;54.498;18.544;2023-04-25T10:47:43;3.60;;;1.70;;
71204;SDS011;58935;54.498;18.544;2023-04-25T10:50:10;5.60;;;2.00;;
71204;SDS011;58935;54.498;18.544;2023-04-25T10:52:39;2.00;;;1.80;;
71204;SDS011;58935;54.498;18.544;2023-04-25T10:55:06;3.50;;;1.60;;
71204;SDS011;58935;54.498;18.544;2023-04-25T10:57:36;3.60;;;1.50;;
71204;SDS011;58935;54.498;18.544;2023-04-25T11:00:10;4.20;;;1.80;;
71204;SDS011;58935;54.498;18.544;2023-04-25T11:02:46;2.00;;;1.50;;
71204;SDS011;58935;54.498;18.544;2023-04-25T11:05:20;2.50;;;1.90;;
71204;SDS011;58935;54.498;18.544;2023-04-25T11:07:52;2.90;;;1.90;;
71204;SDS011;58935;54.498;18.544;2023-04-25T11:10:27;2.70;;;1.80;;
71204;SDS011;58935;54.498;18.544;2023-04-25T11:12:53;2.60;;;1.60;;
71204;SDS011;58935;54.498;18.544;2023-04-25T11:15:19;2.20;;;1.90;;
71204;SDS011;58935;54.498;18.544;2023-04-25T11:17:47;2.00;;;1.50;;
71204;SDS011;58935;54.498;18.544;2023-04-25T11:20:13;1.90;;;1.70;;
71204;SDS011;58935;54.498;18.544;2023-04-25T11:22:41;4.10;;;2.00;;
71204;SDS011;58935;54.498;18.544;2023-04-25T11:25:09;6.00;;;2.10;;
71204;SDS011;58935;54.498;18.544;2023-04-25T11:30:11;3.10;;;2.20;;
71204;SDS011;58935;54.498;18.544;2023-04-25T11:32:39;4.70;;;1.90;;
71204;SDS011;58935;54.498;18.544;2023-04-25T11:35:07;2.40;;;2.00;;
71204;SDS011;58935;54.498;18.544;2023-04-25T11:37:33;5.30;;;2.20;;
71204;SDS011;58935;54.498;18.544;2023-04-25T11:39:59;5.00;;;2.00;;
71204;SDS011;58935;54.498;18.544;2023-04-25T11:42:26;4.90;;;2.10;;
71204;SDS011;58935;54.498;18.544;2023-04-25T11:44:54;2.70;;;1.70;;
71204;SDS011;58935;54.498;18.544;2023-04-25T11:47:30;4.20;;;1.80;;
71204;SDS011;58935;54.498;18.544;2023-04-25T11:49:58;5.70;;;2.40;;
71204;SDS011;58935;54.498;18.544;2023-04-25T11:52:40;2.10;;;1.70;;
71204;SDS011;58935;54.498;18.544;2023-04-25T11:57:35;5.20;;;1.80;;
71204;SDS011;58935;54.498;18.544;2023-04-25T12:00:08;8.30;;;2.30;;
71204;SDS011;58935;54.498;18.544;2023-04-25T12:02:44;2.40;;;1.70;;
71204;SDS011;58935;54.498;18.544;2023-04-25T12:05:18;4.70;;;2.10;;
71204;SDS011;58935;54.498;18.544;2023-04-25T12:07:46;7.10;;;1.90;;
71204;SDS011;58935;54.498;18.544;2023-04-25T12:10:16;6.90;;;1.70;;
71204;SDS011;58935;54.498;18.544;2023-04-25T12:12:45;4.20;;;2.20;;
71204;SDS011;58935;54.498;18.544;2023-04-25T12:15:17;3.50;;;2.00;;
71204;SDS011;58935;54.498;18.544;2023-04-25T12:17:50;5.50;;;3.50;;
71204;SDS011;58935;54.498;18.544;2023-04-25T12:20:20;9.40;;;4.40;;
71204;SDS011;58935;54.498;18.544;2023-04-25T12:22:49;6.50;;;4.70;;
71204;SDS011;58935;54.498;18.544;2023-04-25T12:27:52;7.10;;;4.80;;
71204;SDS011;58935;54.498;18.544;2023-04-25T12:30:18;6.90;;;4.70;;
71204;SDS011;58935;54.498;18.544;2023-04-25T12:32:47;6.70;;;4.30;;
71204;SDS011;58935;54.498;18.544;2023-04-25T12:35:13;5.60;;;3.60;;
71204;SDS011;58935;54.498;18.544;2023-04-25T12:37:40;6.50;;;5.10;;
71204;SDS011;58935;54.498;18.544;2023-04-25T12:40:06;7.10;;;4.60;;
71204;SDS011;58935;54.498;18.544;2023-04-25T12:42:32;4.40;;;3.90;;
71204;SDS011;58935;54.498;18.544;2023-04-25T12:44:57;9.00;;;4.50;;
71204;SDS011;58935;54.498;18.544;2023-04-25T12:47:23;11.20;;;5.90;;
71204;SDS011;58935;54.498;18.544;2023-04-25T12:49:48;12.20;;;6.60;;
71204;SDS011;58935;54.498;18.544;2023-04-25T12:52:14;11.80;;;6.60;;
71204;SDS011;58935;54.498;18.544;2023-04-25T12:54:39;12.60;;;7.30;;
71204;SDS011;58935;54.498;18.544;2023-04-25T12:57:05;5.70;;;4.70;;
71204;SDS011;58935;54.498;18.544;2023-04-25T12:59:30;8.30;;;6.30;;
71204;SDS011;58935;54.498;18.544;2023-04-25T13:01:56;8.40;;;5.80;;
71204;SDS011;58935;54.498;18.544;2023-04-25T13:04:24;7.20;;;5.50;;
71204;SDS011;58935;54.498;18.544;2023-04-25T13:06:49;6.90;;;6.20;;
71204;SDS011;58935;54.498;18.544;2023-04-25T13:09:15;7.40;;;5.50;;
71204;SDS011;58935;54.498;18.544;2023-04-25T13:11:40;5.70;;;5.20;;
71204;SDS011;58935;54.498;18.544;2023-04-25T13:14:06;5.20;;;4.70;;
71204;SDS011;58935;54.498;18.544;2023-04-25T13:16:34;7.00;;;4.50;;
71204;SDS011;58935;54.498;18.544;2023-04-25T13:18:59;6.50;;;4.50;;
71204;SDS011;58935;54.498;18.544;2023-04-25T13:21:29;4.50;;;4.10;;
71204;SDS011;58935;54.498;18.544;2023-04-25T13:23:57;5.30;;;3.60;;
71204;SDS011;58935;54.498;18.544;2023-04-25T13:26:25;6.80;;;4.20;;
71204;SDS011;58935;54.498;18.544;2023-04-25T13:28:51;4.70;;;3.40;;
71204;SDS011;58935;54.498;18.544;2023-04-25T13:31:18;5.40;;;4.30;;
71204;SDS011;58935;54.498;18.544;2023-04-25T13:37:25;6.40;;;4.00;;
71204;SDS011;58935;54.498;18.544;2023-04-25T13:39:54;4.50;;;4.10;;
71204;SDS011;58935;54.498;18.544;2023-04-25T13:42:23;3.80;;;3.50;;
71204;SDS011;58935;54.498;18.544;2023-04-25T13:44:49;3.90;;;3.50;;
71204;SDS011;58935;54.498;18.544;2023-04-25T13:47:14;4.00;;;3.60;;
71204;SDS011;58935;54.498;18.544;2023-04-25T13:49:40;4.50;;;3.80;;
71204;SDS011;58935;54.498;18.544;2023-04-25T13:52:05;7.50;;;3.10;;
71204;SDS011;58935;54.498;18.544;2023-04-25T13:54:31;3.90;;;3.40;;
71204;SDS011;58935;54.498;18.544;2023-04-25T13:56:57;6.20;;;4.40;;
71204;SDS011;58935;54.498;18.544;2023-04-25T13:59:24;5.20;;;3.80;;
71204;SDS011;58935;54.498;18.544;2023-04-25T14:01:51;5.30;;;3.80;;
71204;SDS011;58935;54.498;18.544;2023-04-25T14:04:17;10.60;;;4.30;;
71204;SDS011;58935;54.498;18.544;2023-04-25T14:06:42;4.80;;;3.70;;
71204;SDS011;58935;54.498;18.544;2023-04-25T14:09:08;5.40;;;3.70;;
71204;SDS011;58935;54.498;18.544;2023-04-25T14:11:39;6.70;;;3.80;;
71204;SDS011;58935;54.498;18.544;2023-04-25T14:14:06;5.70;;;3.60;;
71204;SDS011;58935;54.498;18.544;2023-04-25T14:16:34;4.90;;;3.50;;
71204;SDS011;58935;54.498;18.544;2023-04-25T14:19:00;5.70;;;4.30;;
71204;SDS011;58935;54.498;18.544;2023-04-25T14:21:27;6.70;;;4.40;;
71204;SDS011;58935;54.498;18.544;2023-04-25T14:23:53;5.60;;;5.10;;
71204;SDS011;58935;54.498;18.544;2023-04-25T14:26:19;9.90;;;3.30;;
71204;SDS011;58935;54.498;18.544;2023-04-25T14:28:45;5.90;;;3.40;;
71204;SDS011;58935;54.498;18.544;2023-04-25T14:31:11;7.60;;;3.20;;
71204;SDS011;58935;54.498;18.544;2023-04-25T14:33:36;8.00;;;3.00;;
71204;SDS011;58935;54.498;18.544;2023-04-25T14:36:05;9.20;;;3.50;;
71204;SDS011;58935;54.498;18.544;2023-04-25T14:38:30;12.00;;;3.50;;
71204;SDS011;58935;54.498;18.544;2023-04-25T14:40:58;15.10;;;3.90;;
71204;SDS011;58935;54.498;18.544;2023-04-25T14:43:26;14.80;;;3.60;;
71204;SDS011;58935;54.498;18.544;2023-04-25T14:45:52;14.70;;;3.30;;
71204;SDS011;58935;54.498;18.544;2023-04-25T14:48:18;12.50;;;3.40;;
71204;SDS011;58935;54.498;18.544;2023-04-25T14:50:45;7.70;;;2.70;;